sensor_id;sensor_type;location;lat;lon;timestamp;P1;durP1;ratioP1;P2;durP2;ratioP2
51260;SDS011;61705;46.228;24.812;2023-06-14T00:00:02;7.85;;;3.00;;
51260;SDS011;61705;46.228;24.812;2023-06-14T00:02:30;8.77;;;3.15;;
51260;SDS011;61705;46.228;24.812;2023-06-14T00:04:57;5.63;;;3.00;;
51260;SDS011;61705;46.228;24.812;2023-06-14T00:07:35;8.30;;;3.88;;
51260;SDS011;61705;46.228;24.812;2023-06-14T00:10:05;6.50;;;4.47;;
51260;SDS011;61705;46.228;24.812;2023-06-14T00:12:32;11.35;;;4.47;;
51260;SDS011;61705;46.228;24.812;2023-06-14T00:15:02;6.95;;;3.78;;
51260;SDS011;61705;46.228;24.812;2023-06-14T00:17:29;12.07;;;4.28;;
51260;SDS011;61705;46.228;24.812;2023-06-14T00:19:57;19.27;;;6.45;;
51260;SDS011;61705;46.228;24.812;2023-06-14T00:22:24;12.35;;;5.50;;
51260;SDS011;61705;46.228;24.812;2023-06-14T00:24:51;9.02;;;3.80;;
51260;SDS011;61705;46.228;24.812;2023-06-14T00:27:20;7.32;;;3.90;;
51260;SDS011;61705;46.228;24.812;2023-06-14T00:29:46;9.02;;;3.63;;
51260;SDS011;61705;46.228;24.812;2023-06-14T00:32:13;45.65;;;7.20;;
51260;SDS011;61705;46.228;24.812;2023-06-14T00:34:40;12.90;;;4.63;;
51260;SDS011;61705;46.228;24.812;2023-06-14T00:37:07;12.40;;;4.35;;
51260;SDS011;61705;46.228;24.812;2023-06-14T00:39:33;11.45;;;4.30;;
51260;SDS011;61705;46.228;24.812;2023-06-14T00:42:01;13.48;;;4.47;;
51260;SDS011;61705;46.228;24.812;2023-06-14T00:44:27;5.95;;;3.75;;
51260;SDS011;61705;46.228;24.812;2023-06-14T00:46:54;8.38;;;3.50;;
51260;SDS011;61705;46.228;24.812;2023-06-14T00:49:21;7.55;;;3.70;;
51260;SDS011;61705;46.228;24.812;2023-06-14T00:51:48;9.63;;;4.93;;
51260;SDS011;61705;46.228;24.812;2023-06-14T00:54:15;18.75;;;4.72;;
51260;SDS011;61705;46.228;24.812;2023-06-14T00:56:42;9.98;;;3.70;;
51260;SDS011;61705;46.228;24.812;2023-06-14T00:59:10;9.18;;;3.72;;
51260;SDS011;61705;46.228;24.812;2023-06-14T01:01:37;7.32;;;3.67;;
51260;SDS011;61705;46.228;24.812;2023-06-14T01:04:05;9.93;;;4.35;;
51260;SDS011;61705;46.228;24.812;2023-06-14T01:12:02;7.70;;;3.63;;
51260;SDS011;61705;46.228;24.812;2023-06-14T01:14:47;7.95;;;3.60;;
51260;SDS011;61705;46.228;24.812;2023-06-14T01:17:15;8.77;;;3.78;;
51260;SDS011;61705;46.228;24.812;2023-06-14T01:19:43;12.00;;;3.60;;
51260;SDS011;61705;46.228;24.812;2023-06-14T01:22:12;6.47;;;3.60;;
51260;SDS011;61705;46.228;24.812;2023-06-14T01:24:39;8.63;;;4.30;;
51260;SDS011;61705;46.228;24.812;2023-06-14T01:27:05;9.15;;;3.75;;
51260;SDS011;61705;46.228;24.812;2023-06-14T01:29:33;29.35;;;5.53;;
51260;SDS011;61705;46.228;24.812;2023-06-14T01:32:02;6.95;;;3.97;;
51260;SDS011;61705;46.228;24.812;2023-06-14T01:34:30;6.88;;;3.35;;
51260;SDS011;61705;46.228;24.812;2023-06-14T01:36:58;10.38;;;3.72;;
51260;SDS011;61705;46.228;24.812;2023-06-14T01:39:27;11.68;;;4.13;;
51260;SDS011;61705;46.228;24.812;2023-06-14T01:41:54;11.68;;;3.78;;
51260;SDS011;61705;46.228;24.812;2023-06-14T01:44:21;6.65;;;4.03;;
51260;SDS011;61705;46.228;24.812;2023-06-14T01:46:49;12.63;;;4.07;;
51260;SDS011;61705;46.228;24.812;2023-06-14T01:49:17;7.88;;;3.90;;
51260;SDS011;61705;46.228;24.812;2023-06-14T01:51:43;8.80;;;4.07;;
51260;SDS011;61705;46.228;24.812;2023-06-14T01:54:10;11.52;;;4.10;;
51260;SDS011;61705;46.228;24.812;2023-06-14T01:56:37;8.32;;;4.10;;
51260;SDS011;61705;46.228;24.812;2023-06-14T01:59:04;18.40;;;6.10;;
51260;SDS011;61705;46.228;24.812;2023-06-14T02:01:30;14.30;;;4.68;;
51260;SDS011;61705;46.228;24.812;2023-06-14T02:03:57;9.02;;;4.50;;
51260;SDS011;61705;46.228;24.812;2023-06-14T02:06:24;10.57;;;4.80;;
51260;SDS011;61705;46.228;24.812;2023-06-14T02:08:52;10.27;;;4.45;;
51260;SDS011;61705;46.228;24.812;2023-06-14T02:11:19;12.15;;;5.25;;
51260;SDS011;61705;46.228;24.812;2023-06-14T02:13:46;12.05;;;5.20;;
51260;SDS011;61705;46.228;24.812;2023-06-14T02:16:15;12.05;;;4.20;;
51260;SDS011;61705;46.228;24.812;2023-06-14T02:18:43;10.55;;;4.47;;
51260;SDS011;61705;46.228;24.812;2023-06-14T02:21:10;6.40;;;4.35;;
51260;SDS011;61705;46.228;24.812;2023-06-14T02:23:37;6.55;;;4.07;;
51260;SDS011;61705;46.228;24.812;2023-06-14T02:26:03;11.60;;;5.10;;
51260;SDS011;61705;46.228;24.812;2023-06-14T02:28:30;15.82;;;5.50;;
51260;SDS011;61705;46.228;24.812;2023-06-14T02:30:57;9.90;;;4.93;;
51260;SDS011;61705;46.228;24.812;2023-06-14T02:33:24;14.73;;;5.72;;
51260;SDS011;61705;46.228;24.812;2023-06-14T02:35:51;14.90;;;9.27;;
51260;SDS011;61705;46.228;24.812;2023-06-14T02:38:19;10.88;;;4.72;;
51260;SDS011;61705;46.228;24.812;2023-06-14T02:40:45;11.43;;;5.25;;
51260;SDS011;61705;46.228;24.812;2023-06-14T02:43:13;10.23;;;5.20;;
51260;SDS011;61705;46.228;24.812;2023-06-14T02:45:39;13.73;;;5.85;;
51260;SDS011;61705;46.228;24.812;2023-06-14T02:48:07;12.55;;;5.63;;
51260;SDS011;61705;46.228;24.812;2023-06-14T02:50:34;50.80;;;18.75;;
51260;SDS011;61705;46.228;24.812;2023-06-14T02:53:00;17.90;;;7.05;;
51260;SDS011;61705;46.228;24.812;2023-06-14T02:55:29;13.27;;;5.47;;
51260;SDS011;61705;46.228;24.812;2023-06-14T02:57:55;10.38;;;5.18;;
51260;SDS011;61705;46.228;24.812;2023-06-14T03:00:22;10.20;;;5.50;;
51260;SDS011;61705;46.228;24.812;2023-06-14T03:02:49;10.70;;;5.78;;
51260;SDS011;61705;46.228;24.812;2023-06-14T03:05:18;15.38;;;6.38;;
51260;SDS011;61705;46.228;24.812;2023-06-14T03:07:48;13.20;;;5.50;;
51260;SDS011;61705;46.228;24.812;2023-06-14T03:10:16;22.30;;;6.53;;
51260;SDS011;61705;46.228;24.812;2023-06-14T03:12:43;14.38;;;4.90;;
51260;SDS011;61705;46.228;24.812;2023-06-14T03:15:11;16.13;;;6.80;;
51260;SDS011;61705;46.228;24.812;2023-06-14T03:17:39;9.82;;;5.50;;
51260;SDS011;61705;46.228;24.812;2023-06-14T03:20:07;10.18;;;5.20;;
51260;SDS011;61705;46.228;24.812;2023-06-14T03:22:35;19.40;;;9.93;;
51260;SDS011;61705;46.228;24.812;2023-06-14T03:25:01;12.30;;;10.55;;
51260;SDS011;61705;46.228;24.812;2023-06-14T03:27:30;11.90;;;6.50;;
51260;SDS011;61705;46.228;24.812;2023-06-14T03:29:57;9.52;;;5.65;;
51260;SDS011;61705;46.228;24.812;2023-06-14T03:32:26;9.70;;;5.60;;
51260;SDS011;61705;46.228;24.812;2023-06-14T03:34:53;7.82;;;4.75;;
51260;SDS011;61705;46.228;24.812;2023-06-14T03:37:20;9.02;;;5.30;;
51260;SDS011;61705;46.228;24.812;2023-06-14T03:39:47;14.35;;;6.43;;
51260;SDS011;61705;46.228;24.812;2023-06-14T03:42:14;10.75;;;6.20;;
51260;SDS011;61705;46.228;24.812;2023-06-14T03:44:40;14.15;;;6.63;;
51260;SDS011;61705;46.228;24.812;2023-06-14T03:47:07;37.55;;;14.75;;
51260;SDS011;61705;46.228;24.812;2023-06-14T03:49:34;16.30;;;6.40;;
51260;SDS011;61705;46.228;24.812;2023-06-14T03:52:01;18.80;;;6.97;;
51260;SDS011;61705;46.228;24.812;2023-06-14T03:54:29;14.38;;;7.20;;
51260;SDS011;61705;46.228;24.812;2023-06-14T03:57:16;19.65;;;6.20;;
51260;SDS011;61705;46.228;24.812;2023-06-14T03:59:42;11.90;;;5.90;;
51260;SDS011;61705;46.228;24.812;2023-06-14T04:02:09;20.08;;;6.78;;
51260;SDS011;61705;46.228;24.812;2023-06-14T04:04:36;12.93;;;5.45;;
51260;SDS011;61705;46.228;24.812;2023-06-14T04:07:04;20.23;;;6.25;;
51260;SDS011;61705;46.228;24.812;2023-06-14T04:09:31;25.08;;;6.95;;
51260;SDS011;61705;46.228;24.812;2023-06-14T04:11:57;21.00;;;6.93;;
51260;SDS011;61705;46.228;24.812;2023-06-14T04:14:24;15.50;;;5.38;;
51260;SDS011;61705;46.228;24.812;2023-06-14T04:16:51;12.75;;;5.70;;
51260;SDS011;61705;46.228;24.812;2023-06-14T04:19:17;18.15;;;6.85;;
51260;SDS011;61705;46.228;24.812;2023-06-14T04:21:44;9.32;;;4.85;;
51260;SDS011;61705;46.228;24.812;2023-06-14T04:24:11;15.48;;;6.47;;
51260;SDS011;61705;46.228;24.812;2023-06-14T04:26:41;20.92;;;6.22;;
51260;SDS011;61705;46.228;24.812;2023-06-14T04:29:11;14.95;;;5.97;;
51260;SDS011;61705;46.228;24.812;2023-06-14T04:31:43;23.17;;;6.63;;
51260;SDS011;61705;46.228;24.812;2023-06-14T04:34:11;14.95;;;6.00;;
51260;SDS011;61705;46.228;24.812;2023-06-14T04:36:44;14.23;;;7.00;;
51260;SDS011;61705;46.228;24.812;2023-06-14T04:39:16;17.58;;;6.35;;
51260;SDS011;61705;46.228;24.812;2023-06-14T04:41:54;17.70;;;8.68;;
51260;SDS011;61705;46.228;24.812;2023-06-14T04:44:23;9.07;;;5.60;;
51260;SDS011;61705;46.228;24.812;2023-06-14T04:46:56;11.82;;;6.68;;
51260;SDS011;61705;46.228;24.812;2023-06-14T04:49:25;11.52;;;5.80;;
51260;SDS011;61705;46.228;24.812;2023-06-14T04:51:56;14.20;;;5.95;;
51260;SDS011;61705;46.228;24.812;2023-06-14T04:54:28;21.80;;;6.57;;
51260;SDS011;61705;46.228;24.812;2023-06-14T04:56:58;19.45;;;6.60;;
51260;SDS011;61705;46.228;24.812;2023-06-14T04:59:24;16.27;;;5.70;;
51260;SDS011;61705;46.228;24.812;2023-06-14T05:01:51;10.60;;;5.60;;
51260;SDS011;61705;46.228;24.812;2023-06-14T05:04:19;26.13;;;7.65;;
51260;SDS011;61705;46.228;24.812;2023-06-14T05:06:48;17.02;;;6.25;;
51260;SDS011;61705;46.228;24.812;2023-06-14T05:09:15;29.77;;;10.63;;
51260;SDS011;61705;46.228;24.812;2023-06-14T05:11:43;10.23;;;5.10;;
51260;SDS011;61705;46.228;24.812;2023-06-14T05:14:10;24.58;;;8.07;;
51260;SDS011;61705;46.228;24.812;2023-06-14T05:16:37;38.47;;;7.95;;
51260;SDS011;61705;46.228;24.812;2023-06-14T05:19:05;20.85;;;7.78;;
51260;SDS011;61705;46.228;24.812;2023-06-14T05:21:33;48.88;;;11.25;;
51260;SDS011;61705;46.228;24.812;2023-06-14T05:24:06;14.77;;;6.45;;
51260;SDS011;61705;46.228;24.812;2023-06-14T05:26:34;25.40;;;8.90;;
51260;SDS011;61705;46.228;24.812;2023-06-14T05:29:01;23.42;;;8.25;;
51260;SDS011;61705;46.228;24.812;2023-06-14T05:31:29;19.23;;;8.40;;
51260;SDS011;61705;46.228;24.812;2023-06-14T05:33:55;18.52;;;6.88;;
51260;SDS011;61705;46.228;24.812;2023-06-14T05:36:22;17.10;;;8.32;;
51260;SDS011;61705;46.228;24.812;2023-06-14T05:38:49;33.15;;;9.93;;
51260;SDS011;61705;46.228;24.812;2023-06-14T05:41:17;20.55;;;8.75;;
51260;SDS011;61705;46.228;24.812;2023-06-14T05:43:44;10.40;;;5.68;;
51260;SDS011;61705;46.228;24.812;2023-06-14T05:46:10;17.92;;;7.10;;
51260;SDS011;61705;46.228;24.812;2023-06-14T05:48:37;28.58;;;8.32;;
51260;SDS011;61705;46.228;24.812;2023-06-14T05:51:04;19.20;;;7.32;;
51260;SDS011;61705;46.228;24.812;2023-06-14T05:53:30;20.52;;;8.35;;
51260;SDS011;61705;46.228;24.812;2023-06-14T05:55:57;24.17;;;7.07;;
51260;SDS011;61705;46.228;24.812;2023-06-14T05:58:24;29.00;;;11.65;;
51260;SDS011;61705;46.228;24.812;2023-06-14T06:00:51;17.70;;;10.77;;
51260;SDS011;61705;46.228;24.812;2023-06-14T06:03:19;15.38;;;6.97;;
51260;SDS011;61705;46.228;24.812;2023-06-14T06:05:49;13.80;;;7.18;;
51260;SDS011;61705;46.228;24.812;2023-06-14T06:08:16;18.42;;;6.95;;
51260;SDS011;61705;46.228;24.812;2023-06-14T06:10:43;23.95;;;7.65;;
51260;SDS011;61705;46.228;24.812;2023-06-14T06:13:11;10.35;;;6.00;;
51260;SDS011;61705;46.228;24.812;2023-06-14T06:15:38;17.90;;;6.72;;
51260;SDS011;61705;46.228;24.812;2023-06-14T06:18:05;24.23;;;6.93;;
51260;SDS011;61705;46.228;24.812;2023-06-14T06:20:32;17.85;;;7.72;;
51260;SDS011;61705;46.228;24.812;2023-06-14T06:22:59;22.33;;;7.40;;
51260;SDS011;61705;46.228;24.812;2023-06-14T06:25:27;21.45;;;7.30;;
51260;SDS011;61705;46.228;24.812;2023-06-14T06:27:54;12.40;;;6.78;;
51260;SDS011;61705;46.228;24.812;2023-06-14T06:30:24;18.42;;;7.70;;
51260;SDS011;61705;46.228;24.812;2023-06-14T06:32:53;15.73;;;7.88;;
51260;SDS011;61705;46.228;24.812;2023-06-14T06:35:20;16.40;;;7.30;;
51260;SDS011;61705;46.228;24.812;2023-06-14T06:37:46;13.98;;;7.50;;
51260;SDS011;61705;46.228;24.812;2023-06-14T06:40:14;14.88;;;7.75;;
51260;SDS011;61705;46.228;24.812;2023-06-14T06:42:41;16.15;;;9.38;;
51260;SDS011;61705;46.228;24.812;2023-06-14T06:45:07;15.98;;;8.77;;
51260;SDS011;61705;46.228;24.812;2023-06-14T06:47:37;13.65;;;9.55;;
51260;SDS011;61705;46.228;24.812;2023-06-14T06:50:04;16.10;;;9.13;;
51260;SDS011;61705;46.228;24.812;2023-06-14T06:52:32;18.27;;;14.23;;
51260;SDS011;61705;46.228;24.812;2023-06-14T06:54:59;13.30;;;9.18;;
51260;SDS011;61705;46.228;24.812;2023-06-14T06:57:27;17.10;;;9.70;;
51260;SDS011;61705;46.228;24.812;2023-06-14T06:59:55;13.13;;;9.68;;
51260;SDS011;61705;46.228;24.812;2023-06-14T07:02:23;17.15;;;10.05;;
51260;SDS011;61705;46.228;24.812;2023-06-14T07:04:50;19.02;;;11.43;;
51260;SDS011;61705;46.228;24.812;2023-06-14T07:07:17;16.17;;;9.63;;
51260;SDS011;61705;46.228;24.812;2023-06-14T07:09:43;14.35;;;9.60;;
51260;SDS011;61705;46.228;24.812;2023-06-14T07:12:10;15.90;;;9.90;;
51260;SDS011;61705;46.228;24.812;2023-06-14T07:14:38;15.60;;;10.27;;
51260;SDS011;61705;46.228;24.812;2023-06-14T07:17:04;13.48;;;8.85;;
51260;SDS011;61705;46.228;24.812;2023-06-14T07:19:31;16.75;;;10.35;;
51260;SDS011;61705;46.228;24.812;2023-06-14T07:21:58;11.32;;;8.63;;
51260;SDS011;61705;46.228;24.812;2023-06-14T07:24:25;18.33;;;10.45;;
51260;SDS011;61705;46.228;24.812;2023-06-14T07:26:52;23.02;;;11.38;;
51260;SDS011;61705;46.228;24.812;2023-06-14T07:29:19;25.38;;;11.00;;
51260;SDS011;61705;46.228;24.812;2023-06-14T07:31:47;15.45;;;10.30;;
51260;SDS011;61705;46.228;24.812;2023-06-14T07:34:14;18.77;;;10.63;;
51260;SDS011;61705;46.228;24.812;2023-06-14T07:36:41;27.98;;;18.15;;
51260;SDS011;61705;46.228;24.812;2023-06-14T07:39:10;13.40;;;9.35;;
51260;SDS011;61705;46.228;24.812;2023-06-14T07:41:37;16.10;;;8.50;;
51260;SDS011;61705;46.228;24.812;2023-06-14T07:44:04;12.55;;;8.45;;
51260;SDS011;61705;46.228;24.812;2023-06-14T07:46:31;15.07;;;9.25;;
51260;SDS011;61705;46.228;24.812;2023-06-14T07:48:57;16.50;;;9.27;;
51260;SDS011;61705;46.228;24.812;2023-06-14T07:51:24;19.08;;;9.45;;
51260;SDS011;61705;46.228;24.812;2023-06-14T07:53:51;15.98;;;8.98;;
51260;SDS011;61705;46.228;24.812;2023-06-14T07:56:18;20.98;;;8.43;;
51260;SDS011;61705;46.228;24.812;2023-06-14T07:58:46;15.30;;;8.25;;
51260;SDS011;61705;46.228;24.812;2023-06-14T08:01:14;12.50;;;7.22;;
51260;SDS011;61705;46.228;24.812;2023-06-14T08:03:48;28.33;;;11.05;;
51260;SDS011;61705;46.228;24.812;2023-06-14T08:06:16;14.27;;;7.72;;
51260;SDS011;61705;46.228;24.812;2023-06-14T08:08:42;13.23;;;7.60;;
51260;SDS011;61705;46.228;24.812;2023-06-14T08:11:09;9.40;;;6.40;;
51260;SDS011;61705;46.228;24.812;2023-06-14T08:13:36;17.67;;;6.60;;
51260;SDS011;61705;46.228;24.812;2023-06-14T08:16:03;22.80;;;8.15;;
51260;SDS011;61705;46.228;24.812;2023-06-14T08:18:31;66.45;;;12.00;;
51260;SDS011;61705;46.228;24.812;2023-06-14T08:20:58;23.65;;;7.50;;
51260;SDS011;61705;46.228;24.812;2023-06-14T08:23:25;31.15;;;9.73;;
51260;SDS011;61705;46.228;24.812;2023-06-14T08:25:51;33.70;;;9.75;;
51260;SDS011;61705;46.228;24.812;2023-06-14T08:28:19;35.22;;;7.05;;
51260;SDS011;61705;46.228;24.812;2023-06-14T08:30:47;24.17;;;6.18;;
51260;SDS011;61705;46.228;24.812;2023-06-14T08:33:13;21.70;;;7.88;;
51260;SDS011;61705;46.228;24.812;2023-06-14T08:35:43;22.23;;;6.00;;
51260;SDS011;61705;46.228;24.812;2023-06-14T08:38:10;25.05;;;8.43;;
51260;SDS011;61705;46.228;24.812;2023-06-14T08:40:38;19.80;;;5.38;;
51260;SDS011;61705;46.228;24.812;2023-06-14T08:43:07;11.95;;;3.97;;
51260;SDS011;61705;46.228;24.812;2023-06-14T08:45:36;13.75;;;4.60;;
51260;SDS011;61705;46.228;24.812;2023-06-14T08:48:03;12.93;;;3.50;;
51260;SDS011;61705;46.228;24.812;2023-06-14T08:50:32;14.23;;;3.90;;
51260;SDS011;61705;46.228;24.812;2023-06-14T08:53:02;12.65;;;4.07;;
51260;SDS011;61705;46.228;24.812;2023-06-14T08:55:30;7.78;;;3.28;;
51260;SDS011;61705;46.228;24.812;2023-06-14T08:58:03;28.40;;;6.72;;
51260;SDS011;61705;46.228;24.812;2023-06-14T09:00:31;14.85;;;5.00;;
51260;SDS011;61705;46.228;24.812;2023-06-14T09:03:00;8.35;;;3.88;;
51260;SDS011;61705;46.228;24.812;2023-06-14T09:05:29;8.48;;;3.42;;
51260;SDS011;61705;46.228;24.812;2023-06-14T09:07:55;5.80;;;2.95;;
51260;SDS011;61705;46.228;24.812;2023-06-14T09:10:31;13.07;;;4.15;;
51260;SDS011;61705;46.228;24.812;2023-06-14T09:13:05;18.48;;;4.47;;
51260;SDS011;61705;46.228;24.812;2023-06-14T09:15:33;36.28;;;18.20;;
51260;SDS011;61705;46.228;24.812;2023-06-14T09:18:01;12.50;;;4.43;;
51260;SDS011;61705;46.228;24.812;2023-06-14T09:20:29;27.60;;;6.30;;
51260;SDS011;61705;46.228;24.812;2023-06-14T09:22:57;19.95;;;4.05;;
51260;SDS011;61705;46.228;24.812;2023-06-14T09:25:25;27.48;;;5.40;;
51260;SDS011;61705;46.228;24.812;2023-06-14T09:27:59;22.75;;;5.00;;
51260;SDS011;61705;46.228;24.812;2023-06-14T09:30:26;30.38;;;4.43;;
51260;SDS011;61705;46.228;24.812;2023-06-14T09:32:53;27.42;;;4.47;;
51260;SDS011;61705;46.228;24.812;2023-06-14T09:35:20;13.07;;;3.20;;
51260;SDS011;61705;46.228;24.812;2023-06-14T09:37:47;14.57;;;3.47;;
51260;SDS011;61705;46.228;24.812;2023-06-14T09:40:13;8.40;;;2.92;;
51260;SDS011;61705;46.228;24.812;2023-06-14T09:42:47;17.30;;;3.50;;
51260;SDS011;61705;46.228;24.812;2023-06-14T09:45:14;4.15;;;2.10;;
51260;SDS011;61705;46.228;24.812;2023-06-14T09:47:45;4.55;;;2.42;;
51260;SDS011;61705;46.228;24.812;2023-06-14T09:50:31;5.63;;;2.60;;
51260;SDS011;61705;46.228;24.812;2023-06-14T09:53:05;8.57;;;2.30;;
51260;SDS011;61705;46.228;24.812;2023-06-14T09:55:37;3.67;;;2.10;;
51260;SDS011;61705;46.228;24.812;2023-06-14T09:58:05;7.35;;;2.35;;
51260;SDS011;61705;46.228;24.812;2023-06-14T10:00:34;2.45;;;1.80;;
51260;SDS011;61705;46.228;24.812;2023-06-14T10:03:05;10.05;;;2.72;;
51260;SDS011;61705;46.228;24.812;2023-06-14T10:05:38;9.52;;;2.58;;
51260;SDS011;61705;46.228;24.812;2023-06-14T10:08:08;3.40;;;1.63;;
51260;SDS011;61705;46.228;24.812;2023-06-14T10:10:38;6.28;;;2.30;;
51260;SDS011;61705;46.228;24.812;2023-06-14T10:13:06;8.90;;;2.40;;
51260;SDS011;61705;46.228;24.812;2023-06-14T10:18:34;4.97;;;2.75;;
51260;SDS011;61705;46.228;24.812;2023-06-14T10:21:08;12.52;;;3.33;;
51260;SDS011;61705;46.228;24.812;2023-06-14T10:23:55;6.80;;;3.05;;
51260;SDS011;61705;46.228;24.812;2023-06-14T10:26:26;7.53;;;2.70;;
51260;SDS011;61705;46.228;24.812;2023-06-14T10:28:57;17.83;;;4.75;;
51260;SDS011;61705;46.228;24.812;2023-06-14T10:31:43;9.80;;;2.90;;
51260;SDS011;61705;46.228;24.812;2023-06-14T10:34:31;9.55;;;2.40;;
51260;SDS011;61705;46.228;24.812;2023-06-14T10:37:01;5.82;;;1.67;;
51260;SDS011;61705;46.228;24.812;2023-06-14T10:39:30;6.07;;;1.80;;
51260;SDS011;61705;46.228;24.812;2023-06-14T10:41:58;6.85;;;2.28;;
51260;SDS011;61705;46.228;24.812;2023-06-14T10:47:00;5.93;;;1.92;;
51260;SDS011;61705;46.228;24.812;2023-06-14T10:49:36;11.40;;;3.28;;
51260;SDS011;61705;46.228;24.812;2023-06-14T10:52:09;5.68;;;2.05;;
51260;SDS011;61705;46.228;24.812;2023-06-14T10:57:45;8.00;;;2.08;;
51260;SDS011;61705;46.228;24.812;2023-06-14T11:00:22;4.90;;;1.65;;
51260;SDS011;61705;46.228;24.812;2023-06-14T11:05:52;5.28;;;1.70;;
51260;SDS011;61705;46.228;24.812;2023-06-14T11:11:11;4.22;;;2.00;;
51260;SDS011;61705;46.228;24.812;2023-06-14T11:13:41;2.65;;;1.70;;
51260;SDS011;61705;46.228;24.812;2023-06-14T11:16:12;4.15;;;1.80;;
51260;SDS011;61705;46.228;24.812;2023-06-14T11:18:43;4.85;;;1.75;;
51260;SDS011;61705;46.228;24.812;2023-06-14T11:21:11;2.78;;;1.40;;
51260;SDS011;61705;46.228;24.812;2023-06-14T11:23:42;9.63;;;2.92;;
51260;SDS011;61705;46.228;24.812;2023-06-14T11:26:14;7.77;;;3.10;;
51260;SDS011;61705;46.228;24.812;2023-06-14T11:28:41;14.55;;;8.40;;
51260;SDS011;61705;46.228;24.812;2023-06-14T11:31:09;3.25;;;1.55;;
51260;SDS011;61705;46.228;24.812;2023-06-14T11:33:36;3.63;;;1.45;;
51260;SDS011;61705;46.228;24.812;2023-06-14T11:36:02;6.85;;;2.53;;
51260;SDS011;61705;46.228;24.812;2023-06-14T11:38:34;6.50;;;2.22;;
51260;SDS011;61705;46.228;24.812;2023-06-14T11:41:02;7.22;;;2.30;;
51260;SDS011;61705;46.228;24.812;2023-06-14T11:43:29;2.35;;;1.58;;
51260;SDS011;61705;46.228;24.812;2023-06-14T11:45:58;7.90;;;2.58;;
51260;SDS011;61705;46.228;24.812;2023-06-14T11:48:37;6.63;;;2.20;;
51260;SDS011;61705;46.228;24.812;2023-06-14T11:51:05;12.15;;;4.22;;
51260;SDS011;61705;46.228;24.812;2023-06-14T11:53:31;9.10;;;2.40;;
51260;SDS011;61705;46.228;24.812;2023-06-14T11:55:59;10.07;;;2.88;;
51260;SDS011;61705;46.228;24.812;2023-06-14T11:58:26;6.55;;;2.17;;
51260;SDS011;61705;46.228;24.812;2023-06-14T12:00:56;8.73;;;2.22;;
51260;SDS011;61705;46.228;24.812;2023-06-14T12:03:23;4.63;;;1.88;;
51260;SDS011;61705;46.228;24.812;2023-06-14T12:06:03;5.95;;;2.95;;
51260;SDS011;61705;46.228;24.812;2023-06-14T12:08:32;6.63;;;2.40;;
51260;SDS011;61705;46.228;24.812;2023-06-14T12:13:41;5.18;;;1.75;;
51260;SDS011;61705;46.228;24.812;2023-06-14T12:16:10;4.57;;;2.13;;
51260;SDS011;61705;46.228;24.812;2023-06-14T12:18:38;1.80;;;1.58;;
51260;SDS011;61705;46.228;24.812;2023-06-14T12:21:06;6.82;;;2.67;;
51260;SDS011;61705;46.228;24.812;2023-06-14T12:23:45;4.93;;;2.13;;
51260;SDS011;61705;46.228;24.812;2023-06-14T12:26:16;7.15;;;1.67;;
51260;SDS011;61705;46.228;24.812;2023-06-14T12:28:44;4.07;;;2.22;;
51260;SDS011;61705;46.228;24.812;2023-06-14T12:31:13;5.53;;;2.10;;
51260;SDS011;61705;46.228;24.812;2023-06-14T12:33:41;14.95;;;3.33;;
51260;SDS011;61705;46.228;24.812;2023-06-14T12:36:08;3.28;;;1.88;;
51260;SDS011;61705;46.228;24.812;2023-06-14T12:38:37;16.17;;;3.08;;
51260;SDS011;61705;46.228;24.812;2023-06-14T12:41:04;5.32;;;2.13;;
51260;SDS011;61705;46.228;24.812;2023-06-14T12:43:31;11.35;;;3.25;;
51260;SDS011;61705;46.228;24.812;2023-06-14T12:45:58;5.65;;;2.00;;
51260;SDS011;61705;46.228;24.812;2023-06-14T12:48:25;6.80;;;1.73;;
51260;SDS011;61705;46.228;24.812;2023-06-14T12:50:57;4.35;;;1.88;;
51260;SDS011;61705;46.228;24.812;2023-06-14T12:53:24;17.83;;;11.88;;
51260;SDS011;61705;46.228;24.812;2023-06-14T12:55:51;15.80;;;4.20;;
51260;SDS011;61705;46.228;24.812;2023-06-14T12:58:21;8.70;;;4.10;;
51260;SDS011;61705;46.228;24.812;2023-06-14T13:00:50;1.67;;;1.55;;
51260;SDS011;61705;46.228;24.812;2023-06-14T13:03:17;8.02;;;3.35;;
51260;SDS011;61705;46.228;24.812;2023-06-14T13:05:44;7.43;;;2.08;;
51260;SDS011;61705;46.228;24.812;2023-06-14T13:08:11;9.52;;;2.30;;
51260;SDS011;61705;46.228;24.812;2023-06-14T13:10:37;2.28;;;1.67;;
51260;SDS011;61705;46.228;24.812;2023-06-14T13:13:04;5.40;;;1.90;;
51260;SDS011;61705;46.228;24.812;2023-06-14T13:15:31;2.15;;;1.73;;
51260;SDS011;61705;46.228;24.812;2023-06-14T13:17:58;1.80;;;1.52;;
51260;SDS011;61705;46.228;24.812;2023-06-14T13:20:24;5.18;;;2.00;;
51260;SDS011;61705;46.228;24.812;2023-06-14T13:22:51;3.22;;;1.70;;
51260;SDS011;61705;46.228;24.812;2023-06-14T13:25:20;4.75;;;1.98;;
51260;SDS011;61705;46.228;24.812;2023-06-14T13:27:48;3.22;;;1.10;;
51260;SDS011;61705;46.228;24.812;2023-06-14T13:30:15;3.17;;;1.30;;
51260;SDS011;61705;46.228;24.812;2023-06-14T13:32:42;1.45;;;1.35;;
51260;SDS011;61705;46.228;24.812;2023-06-14T13:35:09;3.95;;;2.13;;
51260;SDS011;61705;46.228;24.812;2023-06-14T13:37:36;5.47;;;2.38;;
51260;SDS011;61705;46.228;24.812;2023-06-14T13:40:03;2.83;;;1.50;;
51260;SDS011;61705;46.228;24.812;2023-06-14T13:42:30;3.75;;;1.17;;
51260;SDS011;61705;46.228;24.812;2023-06-14T13:44:58;3.17;;;1.63;;
51260;SDS011;61705;46.228;24.812;2023-06-14T13:47:25;5.97;;;1.50;;
51260;SDS011;61705;46.228;24.812;2023-06-14T13:49:52;1.60;;;1.33;;
51260;SDS011;61705;46.228;24.812;2023-06-14T13:52:18;6.72;;;1.83;;
51260;SDS011;61705;46.228;24.812;2023-06-14T13:54:45;4.28;;;1.63;;
51260;SDS011;61705;46.228;24.812;2023-06-14T13:57:15;1.98;;;1.52;;
51260;SDS011;61705;46.228;24.812;2023-06-14T13:59:42;3.72;;;1.45;;
51260;SDS011;61705;46.228;24.812;2023-06-14T14:02:11;3.25;;;1.45;;
51260;SDS011;61705;46.228;24.812;2023-06-14T14:04:43;2.72;;;1.40;;
51260;SDS011;61705;46.228;24.812;2023-06-14T14:07:10;2.10;;;1.23;;
51260;SDS011;61705;46.228;24.812;2023-06-14T14:09:40;3.10;;;1.70;;
51260;SDS011;61705;46.228;24.812;2023-06-14T14:12:14;4.90;;;2.03;;
51260;SDS011;61705;46.228;24.812;2023-06-14T14:14:44;4.88;;;1.92;;
51260;SDS011;61705;46.228;24.812;2023-06-14T14:17:15;7.60;;;3.55;;
51260;SDS011;61705;46.228;24.812;2023-06-14T14:19:45;2.40;;;1.52;;
51260;SDS011;61705;46.228;24.812;2023-06-14T14:22:11;3.28;;;1.50;;
51260;SDS011;61705;46.228;24.812;2023-06-14T14:24:41;14.60;;;3.25;;
51260;SDS011;61705;46.228;24.812;2023-06-14T14:27:10;5.90;;;1.67;;
51260;SDS011;61705;46.228;24.812;2023-06-14T14:29:38;7.05;;;2.10;;
51260;SDS011;61705;46.228;24.812;2023-06-14T14:32:07;14.25;;;4.25;;
51260;SDS011;61705;46.228;24.812;2023-06-14T14:34:36;6.18;;;2.40;;
51260;SDS011;61705;46.228;24.812;2023-06-14T14:37:06;4.93;;;2.38;;
51260;SDS011;61705;46.228;24.812;2023-06-14T14:40:39;1.80;;;1.30;;
51260;SDS011;61705;46.228;24.812;2023-06-14T14:43:24;2.08;;;1.38;;
51260;SDS011;61705;46.228;24.812;2023-06-14T14:45:50;9.25;;;3.50;;
51260;SDS011;61705;46.228;24.812;2023-06-14T14:48:17;6.03;;;2.17;;
51260;SDS011;61705;46.228;24.812;2023-06-14T14:50:44;4.05;;;1.52;;
51260;SDS011;61705;46.228;24.812;2023-06-14T14:53:11;4.20;;;1.70;;
51260;SDS011;61705;46.228;24.812;2023-06-14T14:55:38;9.80;;;2.10;;